Latest Weather Observations for Iron Bridge Mine

IDW60801

Issued at 1:12 pm WST Monday 20 May 2024 (issued every 10 minutes, with the page automatically refreshed every 10 minutes)

About weather observations | Map of weather stations | Latest weather observations for WA | Other Formats
Station Details ID: 504066 Name: IRONBRIDGE AIRPORT Lat: -21.28 Lon: 118.88 Height: 196.58 m
Data from the previous 72 hours. | See also: Recent months for locations in Western Australia
Date/Time
WST
Temp
°C
App
Temp
°C
Dew
Point
°C
Rel
Hum
%
Delta-T
°C
Wind Press
QNH
hPa
Press
MSL
hPa
Rain since
9am
mm
Dir  Spd
km/h
Gust
km/h
Spd
kts
Gust
kts
20/01:00pm 28.3 21.4 2.5 19 12.8 ESE 28 37 15 20 1017.9 1017.0 0.0
20/12:30pm 27.8 21.6 2.1 19 12.7 E 24 39 13 21 1018.6 1017.7 0.0
20/12:00pm 27.3 21.5 2.4 20 12.3 E 22 44 12 24 1019.1 1018.2 0.0
20/11:30am 27.0 20.8 2.1 20 12.2 ESE 24 35 13 19 1019.7 1018.8 0.0
20/11:00am 26.4 19.8 2.3 21 11.8 E 26 41 14 22 1020.1 1019.2 0.0
20/10:30am 26.3 18.9 1.6 20 11.9 E 30 44 16 24 1020.3 1019.4 0.0
20/10:00am 25.3 18.8 2.7 23 11.1 E 26 37 14 20 1020.7 1019.8 0.0
20/09:30am 24.6 17.7 2.7 24 10.7 E 28 39 15 21 1021.0 1020.1 0.0
20/09:00am 24.0 17.9 2.8 25 10.3 E 24 33 13 18 1021.0 1020.1 0.0
20/08:30am 23.1 17.4 2.6 26 9.9 ESE 22 30 12 16 1020.8 1019.9 0.0
20/08:00am 22.1 16.9 2.2 27 9.4 ESE 19 30 10 16 1020.6 1019.7 0.0
20/07:30am 18.7 15.5 2.9 35 7.4 SE 9 13 5 7 1020.6 1019.7 0.0
20/07:00am 16.9 13.2 2.5 38 6.6 SSE 11 13 6 7 1020.4 1019.5 0.0
20/06:30am 17.5 13.8 2.3 36 7.0 SSE 11 13 6 7 1020.0 1019.1 0.0
20/06:00am 19.7 15.6 2.1 31 8.2 ESE 13 17 7 9 1019.5 1018.6 0.0
20/05:30am 20.2 15.7 2.1 30 8.4 ESE 15 19 8 10 1019.2 1018.3 0.0
20/05:00am 20.5 15.6 2.3 30 8.5 ESE 17 24 9 13 1018.9 1018.0 0.0
20/04:30am 20.8 15.9 2.1 29 8.8 ESE 17 26 9 14 1018.7 1017.8 0.0
20/04:00am 20.1 16.0 2.5 31 8.3 ESE 13 20 7 11 1018.7 1017.8 0.0
20/03:30am 20.5 16.4 2.3 30 8.5 ESE 13 19 7 10 1018.6 1017.7 0.0
20/03:00am 20.8 16.8 3.1 31 8.5 ESE 13 19 7 10 1018.5 1017.6 0.0
20/02:30am 21.3 16.7 3.5 31 8.6 ESE 17 24 9 13 1018.6 1017.7 0.0
20/02:00am 21.7 16.6 3.9 31 8.7 ESE 20 26 11 14 1019.0 1018.1 0.0
20/01:30am 22.0 17.1 4.1 31 8.8 ESE 19 26 10 14 1019.2 1018.3 0.0
20/01:00am 22.4 16.9 4.0 30 9.0 ESE 22 28 12 15 1019.4 1018.5 0.0
20/12:30am 22.8 17.7 4.3 30 9.2 SE 20 26 11 14 1019.5 1018.6 0.0
20/12:00am 22.7 18.3 4.7 31 9.0 SE 17 22 9 12 1019.5 1018.6 0.0
 
Date/Time
WST
Temp
°C
App
Temp
°C
Dew
Point
°C
Rel
Hum
%
Delta-T
°C
Wind Press
QNH
hPa
Press
MSL
hPa
Rain since
9am
mm
Dir  Spd
km/h
Gust
km/h
Spd
kts
Gust
kts
19/11:30pm 23.6 18.9 5.0 30 9.4 ESE 19 24 10 13 1019.6 1018.7 0.0
19/11:00pm 24.0 19.4 5.4 30 9.5 ESE 19 26 10 14 1019.6 1018.7 0.0
19/10:30pm 23.9 20.0 5.3 30 9.5 ESE 15 20 8 11 1019.7 1018.8 0.0
19/10:00pm 24.3 20.0 5.1 29 9.8 ESE 17 24 9 13 1019.7 1018.8 0.0
19/09:30pm 24.6 20.7 5.4 29 9.8 ESE 15 20 8 11 1019.4 1018.5 0.0
19/09:00pm 25.1 20.4 5.3 28 10.1 ESE 19 26 10 14 1019.0 1018.1 0.0
19/08:30pm 25.4 21.1 5.1 27 10.4 ESE 17 24 9 13 1018.7 1017.8 0.0
19/08:00pm 25.8 21.2 5.4 27 10.5 ESE 19 24 10 13 1018.6 1017.7 0.0
19/07:30pm 26.0 21.6 5.0 26 10.8 ESE 17 24 9 13 1018.2 1017.3 0.0
19/07:00pm 26.6 21.9 5.0 25 11.1 ESE 19 26 10 14 1017.7 1016.8 0.0
19/06:30pm 26.7 22.0 5.1 25 11.1 ESE 19 24 10 13 1017.3 1016.3 0.0
19/06:00pm 27.3 22.4 5.0 24 11.5 ESE 20 32 11 17 1016.7 1015.8 0.0
19/05:30pm 28.1 23.1 4.4 22 12.2 ESE 20 32 11 17 1016.6 1015.7 0.0
19/05:00pm 28.8 23.1 5.0 22 12.4 ESE 24 32 13 17 1016.3 1015.4 0.0
19/04:30pm 29.2 23.8 4.6 21 12.8 ESE 22 33 12 18 1016.2 1015.3 0.0
19/04:00pm 29.3 24.2 4.0 20 13.0 ESE 20 33 11 18 1016.1 1015.2 0.0
19/03:30pm 29.6 23.4 4.3 20 13.1 ESE 26 43 14 23 1015.9 1015.0 0.0
19/03:00pm 29.7 23.7 3.6 19 13.4 ESE 24 39 13 21 1016.0 1015.1 0.0
19/02:30pm 29.8 23.6 4.4 20 13.2 ESE 26 37 14 20 1016.2 1015.3 0.0
19/02:00pm 29.7 23.7 3.6 19 13.4 ESE 24 39 13 21 1016.3 1015.4 0.0
19/01:30pm 29.7 23.7 3.6 19 13.4 ESE 24 35 13 19 1016.6 1015.7 0.0
19/01:00pm 29.0 22.6 3.1 19 13.1 E 26 35 14 19 1017.3 1016.3 0.0
19/12:30pm 28.6 22.3 3.5 20 12.7 E 26 37 14 20 1017.8 1016.9 0.0
19/12:00pm 28.6 21.9 3.5 20 12.7 E 28 57 15 31 1018.3 1017.4 0.0
19/11:58am 28.5 21.8 3.4 20 12.7 E 28 57 15 31 1018.3 1017.4 0.0
19/11:30am 27.9 21.9 3.6 21 12.3 E 24 35 13 19 1018.8 1017.9 0.0
19/11:00am 27.2 20.4 3.0 21 12.1 ESE 28 44 15 24 1019.3 1018.4 0.0
19/10:30am 26.9 19.3 2.7 21 12.0 ESE 32 39 17 21 1019.6 1018.7 0.0
19/10:08am 25.8 18.1 2.5 22 11.4 ESE 32 50 17 27 1020.0 1019.1 0.0
19/10:00am 25.8 18.9 2.5 22 11.4 ESE 28 43 15 23 1020.1 1019.2 0.0
19/09:30am 24.9 17.6 2.4 23 10.9 ESE 30 43 16 23 1020.4 1019.5 0.0
19/09:00am 24.3 17.9 1.2 22 10.9 ESE 24 37 13 20 1020.5 1019.6 0.0
19/08:30am 23.4 17.0 1.1 23 10.4 ESE 24 35 13 19 1020.5 1019.6 0.0
19/08:00am 22.6 18.3 1.0 24 10.0 SE 13 19 7 10 1020.6 1019.7 0.0
19/07:30am 19.5 15.6 1.0 29 8.4 SSE 11 15 6 8 1020.7 1019.8 0.0
19/07:00am 17.8 13.5 0.9 32 7.5 SSE 13 17 7 9 1020.5 1019.6 0.0
19/06:30am 17.0 12.8 1.4 35 7.0 SE 13 15 7 8 1020.2 1019.3 0.0
19/06:00am 17.4 13.2 1.4 34 7.2 SSE 13 15 7 8 1019.8 1018.9 0.0
19/05:30am 17.9 13.7 1.8 34 7.3 SSE 13 15 7 8 1019.7 1018.8 0.0
19/05:00am 17.8 14.9 2.5 36 7.1 SE 7 9 4 5 1019.5 1018.6 0.0
19/04:30am 17.7 13.8 3.2 38 6.8 SSE 13 15 7 8 1019.5 1018.6 0.0
19/04:00am 18.4 14.5 3.5 37 7.0 SSE 13 15 7 8 1019.4 1018.5 0.0
19/03:30am 18.5 15.0 3.6 37 7.1 SSE 11 13 6 7 1019.5 1018.6 0.0
19/03:00am 19.5 16.7 3.2 34 7.7 S 7 13 4 7 1019.7 1018.8 0.0
19/02:30am 21.7 17.4 3.4 30 8.8 SE 15 20 8 11 1019.7 1018.8 0.0
19/02:00am 22.6 18.0 3.7 29 9.2 ESE 17 24 9 13 1019.8 1018.9 0.0
19/01:30am 23.0 18.5 4.0 29 9.4 ESE 17 24 9 13 1020.0 1019.1 0.0
19/01:00am 23.5 18.0 4.0 28 9.7 ESE 22 30 12 16 1019.9 1019.0 0.0
19/12:30am 23.9 18.5 4.3 28 9.8 ESE 22 28 12 15 1019.8 1018.9 0.0
19/12:00am 24.5 18.3 4.3 27 10.1 ESE 26 37 14 20 1019.8 1018.9 0.0
 
Date/Time
WST
Temp
°C
App
Temp
°C
Dew
Point
°C
Rel
Hum
%
Delta-T
°C
Wind Press
QNH
hPa
Press
MSL
hPa
Rain since
9am
mm
Dir  Spd
km/h
Gust
km/h
Spd
kts
Gust
kts
18/11:30pm 24.8 19.0 4.5 27 10.2 ESE 24 35 13 19 1020.0 1019.1 0.0
18/11:00pm 25.1 19.4 4.8 27 10.3 ESE 24 33 13 18 1020.1 1019.2 0.0
18/10:30pm 23.7 19.5 5.6 31 9.2 SE 17 22 9 12 1020.3 1019.4 0.0
18/10:00pm 26.1 20.6 5.7 27 10.6 ESE 24 35 13 19 1020.2 1019.3 0.0
18/09:30pm 26.1 21.5 5.7 27 10.6 ESE 19 32 10 17 1020.1 1019.2 0.0
18/09:00pm 26.2 22.0 5.7 27 10.6 ESE 17 22 9 12 1020.0 1019.1 0.0
18/08:30pm 25.7 21.9 5.8 28 10.3 ESE 15 19 8 10 1019.6 1018.7 0.0
18/08:00pm 25.2 22.1 5.4 28 10.2 SE 11 13 6 7 1019.4 1018.5 0.0
18/07:30pm 27.0 23.2 5.9 26 11.1 ESE 15 22 8 12 1019.0 1018.1 0.0
18/07:00pm 27.1 23.7 6.0 26 11.1 ESE 13 19 7 10 1018.6 1017.7 0.0
18/06:30pm 27.9 24.0 5.5 24 11.7 ESE 15 19 8 10 1018.1 1017.2 0.0
18/06:00pm 29.1 23.8 5.2 22 12.5 ESE 22 28 12 15 1017.6 1016.7 0.0
18/05:30pm 29.5 24.9 5.6 22 12.6 ESE 19 30 10 16 1017.2 1016.2 0.0
18/05:00pm 30.5 24.8 5.0 20 13.4 SE 24 35 13 19 1017.0 1016.1 0.0
18/04:30pm 30.8 25.3 6.0 21 13.3 SE 24 37 13 20 1016.8 1015.9 0.0
18/04:00pm 31.2 25.9 4.9 19 13.9 ESE 22 35 12 19 1016.7 1015.8 0.0
18/03:30pm 31.8 26.2 5.3 19 14.1 SE 24 37 13 20 1016.6 1015.7 0.0
18/03:00pm 31.6 26.7 5.2 19 14.0 E 20 30 11 16 1016.5 1015.6 0.0
18/02:30pm 31.4 26.5 5.0 19 14.0 ESE 20 33 11 18 1016.8 1015.9 0.0
18/02:00pm 31.6 26.0 5.2 19 14.0 SE 24 35 13 19 1017.0 1016.1 0.0
18/01:30pm 31.4 26.0 6.5 21 13.5 ESE 24 33 13 18 1017.3 1016.3 0.0
18/01:00pm 31.2 26.1 7.6 23 13.0 ESE 24 32 13 17 1017.9 1017.0 0.0
18/12:30pm 30.9 25.4 7.4 23 12.9 E 26 43 14 23 1018.5 1017.6 0.0
18/12:00pm 30.8 25.0 7.9 24 12.7 E 28 39 15 21 1019.1 1018.2 0.0
18/11:30am 29.8 24.3 7.7 25 12.1 ESE 26 37 14 20 1019.5 1018.6 0.0
18/11:00am 29.2 22.4 7.7 26 11.8 ESE 33 43 18 23 1020.0 1019.1 0.0
18/10:30am 28.9 22.2 7.5 26 11.6 E 32 43 17 23 1020.5 1019.6 0.0
18/10:00am 28.0 21.4 7.8 28 11.0 E 32 44 17 24 1020.8 1019.9 0.0
18/09:30am 27.4 21.6 7.8 29 10.6 E 28 39 15 21 1021.0 1020.1 0.0
18/09:00am 25.9 19.7 8.0 32 9.7 ESE 30 39 16 21 1021.1 1020.2 0.0
18/08:30am 25.2 19.4 7.8 33 9.3 ESE 28 39 15 21 1021.2 1020.3 0.0
18/08:00am 24.3 18.9 7.9 35 8.8 ESE 26 37 14 20 1021.1 1020.2 0.0
18/07:30am 24.0 18.9 7.6 35 8.7 ESE 24 33 13 18 1021.1 1020.2 0.0
18/07:00am 22.8 19.1 7.8 38 7.9 ESE 17 20 9 11 1020.9 1020.0 0.0
18/06:30am 22.9 18.8 7.8 38 8.0 ESE 19 26 10 14 1020.5 1019.6 0.0
18/06:00am 22.9 18.8 7.8 38 8.0 SE 19 22 10 12 1020.2 1019.3 0.0
18/05:30am 22.5 18.9 8.2 40 7.6 SE 17 22 9 12 1019.9 1019.0 0.0
18/05:00am 23.6 19.6 8.1 37 8.3 SE 19 26 10 14 1019.6 1018.7 0.0
18/04:30am 24.1 19.5 8.1 36 8.6 ESE 22 32 12 17 1019.4 1018.5 0.0
18/04:05am 24.6 18.9 8.5 36 8.7 ESE 28 46 15 25 1019.2 1018.3 0.0
18/04:00am 24.6 18.9 8.5 36 8.7 ESE 28 39 15 21 1019.2 1018.3 0.0
18/03:30am 24.6 19.7 8.5 36 8.7 ESE 24 32 13 17 1019.3 1018.4 0.0
18/03:00am 24.7 20.5 8.2 35 8.9 ESE 20 30 11 16 1019.3 1018.4 0.0
18/02:30am 24.8 20.8 8.3 35 8.9 ESE 19 24 10 13 1019.3 1018.4 0.0
18/02:00am 24.8 21.5 7.9 34 9.1 SE 15 19 8 10 1019.4 1018.5 0.0
18/01:30am 25.7 21.4 7.8 32 9.6 ESE 20 32 11 17 1019.4 1018.5 0.0
18/01:00am 26.1 21.4 7.7 31 9.9 ESE 22 35 12 19 1019.3 1018.4 0.0
18/12:30am 26.6 21.5 7.6 30 10.2 ESE 24 37 13 20 1019.3 1018.4 0.0
18/12:00am 27.0 22.2 7.5 29 10.5 ESE 22 33 12 18 1019.2 1018.3 0.0
 
Date/Time
WST
Temp
°C
App
Temp
°C
Dew
Point
°C
Rel
Hum
%
Delta-T
°C
Wind Press
QNH
hPa
Press
MSL
hPa
Rain since
9am
mm
Dir  Spd
km/h
Gust
km/h
Spd
kts
Gust
kts
17/11:30pm 27.0 22.9 8.0 30 10.3 ESE 19 30 10 16 1019.2 1018.3 0.0
17/11:00pm 25.1 22.3 8.6 35 9.0 ESE 13 20 7 11 1019.2 1018.3 0.0
17/10:30pm 26.7 23.5 8.6 32 9.9 ESE 15 20 8 11 1019.3 1018.4 0.0
17/10:00pm 27.0 23.8 8.4 31 10.2 ESE 15 19 8 10 1019.2 1018.3 0.0
17/09:30pm 26.7 23.9 8.6 32 9.9 ESE 13 17 7 9 1019.2 1018.3 0.0
17/09:00pm 26.3 23.6 8.8 33 9.6 ESE 13 15 7 8 1019.2 1018.3 0.0
17/08:30pm 26.4 23.7 8.8 33 9.7 ESE 13 15 7 8 1019.1 1018.2 0.0
17/08:00pm 26.7 24.4 9.1 33 9.7 ESE 11 13 6 7 1019.0 1018.1 0.0
17/07:30pm 27.0 24.3 8.9 32 10.0 ESE 13 15 7 8 1018.7 1017.8 0.0
17/07:00pm 27.8 25.1 9.1 31 10.4 ESE 13 15 7 8 1018.3 1017.4 0.0
17/06:30pm 28.3 26.0 9.1 30 10.7 ESE 11 13 6 7 1018.1 1017.2 0.0
17/06:00pm 29.8 27.1 8.8 27 11.7 ESE 13 19 7 10 1017.7 1016.8 0.0
17/05:30pm 30.7 28.0 9.0 26 12.2 E 13 19 7 10 1017.3 1016.3 0.0
17/05:00pm 31.8 27.9 9.3 25 12.8 ESE 20 28 11 15 1017.0 1016.1 0.0
17/04:30pm 32.2 28.2 9.1 24 13.1 E 20 28 11 15 1016.7 1015.8 0.0
17/04:00pm 32.4 28.3 8.6 23 13.4 E 20 28 11 15 1016.5 1015.6 0.0
17/03:30pm 32.8 29.0 8.9 23 13.6 ESE 19 28 10 15 1016.4 1015.5 0.0
17/03:00pm 32.7 28.8 9.5 24 13.3 E 20 32 11 17 1016.4 1015.5 0.0
17/02:30pm 32.5 27.8 9.3 24 13.2 E 24 37 13 20 1016.4 1015.5 0.0
17/02:00pm 32.9 27.9 9.7 24 13.3 ENE 26 37 14 20 1016.5 1015.6 0.0
17/01:30pm 32.7 27.7 9.5 24 13.3 E 26 37 14 20 1016.7 1015.8 0.0

Other formats

Comma delimited format used in spreadsheet applications
http://www.bom.gov.au/fwo/IDW60801/IDW60801.99366.axf

JavaScript Object Notation format (JSON) in row-major order
http://www.bom.gov.au/fwo/IDW60801/IDW60801.99366.json

Data quality

Most of these data are generated automatically and are frequently updated. Quality checks on data are not normally performed. It is possible for incorrect values to appear. Refer to information at About Latest Weather Observations and please check the disclaimer before using these data.